createdAt,value
2023-02-11T00:01:28.169Z,43.60
2023-02-11T00:03:56.950Z,44.00
2023-02-11T00:06:27.821Z,43.72
2023-02-11T00:08:55.873Z,44.00
2023-02-11T00:11:30.829Z,44.60
2023-02-11T00:14:02.146Z,45.38
2023-02-11T00:16:31.741Z,43.92
2023-02-11T00:19:01.054Z,46.22
2023-02-11T00:21:29.300Z,45.55
2023-02-11T00:23:59.827Z,45.97
2023-02-11T00:26:32.193Z,45.20
2023-02-11T00:29:00.869Z,45.33
2023-02-11T00:31:29.003Z,47.85
2023-02-11T00:33:56.342Z,48.38
2023-02-11T00:36:27.278Z,47.08
2023-02-11T00:38:56.962Z,49.72
2023-02-11T00:41:25.965Z,49.58
2023-02-11T00:43:53.740Z,49.72
2023-02-11T00:46:21.151Z,49.63
2023-02-11T00:48:48.963Z,48.63
2023-02-11T00:51:16.111Z,50.90
2023-02-11T00:53:43.696Z,52.40
2023-02-11T00:56:10.906Z,50.40
2023-02-11T00:58:38.060Z,50.53
2023-02-11T01:01:05.476Z,50.17
2023-02-11T01:03:32.617Z,47.65
2023-02-11T01:05:59.845Z,52.17
2023-02-11T01:08:27.163Z,50.85
2023-02-11T01:11:07.852Z,50.60
2023-02-11T01:13:37.277Z,50.45
2023-02-11T01:16:08.567Z,51.53
2023-02-11T01:18:36.682Z,51.42
2023-02-11T01:21:04.259Z,51.45
2023-02-11T01:23:31.546Z,50.70
2023-02-11T01:25:59.199Z,52.65
2023-02-11T01:28:29.892Z,52.35
2023-02-11T01:30:57.350Z,53.17
2023-02-11T01:33:24.701Z,52.45
2023-02-11T01:35:52.234Z,52.90
2023-02-11T01:38:25.820Z,50.75
2023-02-11T01:40:57.128Z,52.30
2023-02-11T01:43:27.395Z,54.40
2023-02-11T01:46:17.558Z,53.40
2023-02-11T01:48:51.734Z,53.30
2023-02-11T01:51:26.763Z,54.25
2023-02-11T01:54:14.542Z,53.97
2023-02-11T01:57:08.652Z,53.05
2023-02-11T02:00:01.902Z,54.47
2023-02-11T02:02:49.285Z,53.83
2023-02-11T02:05:51.764Z,54.78
2023-02-11T02:08:29.515Z,57.05
2023-02-11T02:11:00.468Z,55.17
2023-02-11T02:13:31.013Z,56.53
2023-02-11T02:16:03.201Z,56.75
2023-02-11T02:18:54.668Z,57.78
2023-02-11T02:22:05.651Z,59.85
2023-02-11T02:25:07.274Z,61.08
2023-02-11T02:28:02.545Z,60.85
2023-02-11T02:30:54.757Z,59.47
2023-02-11T02:33:56.373Z,59.30
2023-02-11T02:36:41.782Z,61.42
2023-02-11T02:39:24.358Z,60.42
2023-02-11T02:41:54.304Z,60.83
2023-02-11T02:44:21.755Z,62.17
2023-02-11T02:46:49.020Z,65.10
2023-02-11T02:49:17.872Z,65.55
2023-02-11T02:52:21.971Z,63.88
2023-02-11T02:55:41.857Z,62.03
2023-02-11T02:58:38.477Z,62.80
2023-02-11T03:01:52.029Z,62.20
2023-02-11T03:04:42.196Z,62.30
2023-02-11T03:07:26.081Z,61.17
2023-02-11T03:10:10.929Z,61.72
2023-02-11T03:12:41.929Z,62.63
2023-02-11T03:15:12.431Z,63.90
2023-02-11T03:17:45.715Z,62.53
2023-02-11T03:20:18.062Z,62.55
2023-02-11T03:23:16.890Z,65.32
2023-02-11T03:26:02.673Z,63.15
2023-02-11T03:28:40.674Z,63.63
2023-02-11T03:31:22.061Z,63.90
2023-02-11T03:34:04.676Z,66.15
2023-02-11T03:36:45.998Z,65.00
2023-02-11T03:39:22.566Z,62.90
2023-02-11T03:41:52.161Z,64.22
2023-02-11T03:44:22.882Z,64.40
2023-02-11T03:46:53.958Z,62.95
2023-02-11T03:49:27.634Z,62.80
2023-02-11T03:51:56.422Z,63.40
2023-02-11T03:54:30.269Z,63.38
2023-02-11T03:57:01.629Z,63.55
2023-02-11T03:59:29.223Z,62.55
2023-02-11T04:01:57.687Z,62.58
2023-02-11T04:04:25.108Z,61.38
2023-02-11T04:06:52.266Z,64.57
2023-02-11T04:09:19.570Z,62.42
2023-02-11T04:11:46.715Z,61.13
2023-02-11T04:14:13.847Z,60.67
2023-02-11T04:16:41.109Z,61.42
2023-02-11T04:19:08.586Z,58.95
2023-02-11T04:21:35.748Z,59.97
2023-02-11T04:24:03.048Z,60.33
2023-02-11T04:26:30.225Z,58.60
2023-02-11T04:28:57.375Z,59.58
2023-02-11T04:31:24.768Z,60.38
2023-02-11T04:33:52.083Z,61.20
2023-02-11T04:36:19.230Z,58.10
2023-02-11T04:38:46.477Z,61.10
2023-02-11T04:41:13.826Z,60.60
2023-02-11T04:43:40.957Z,58.55
2023-02-11T04:46:08.238Z,59.70
2023-02-11T04:48:35.769Z,60.55
2023-02-11T04:51:02.923Z,59.92
2023-02-11T04:53:30.062Z,60.45
2023-02-11T04:55:57.496Z,63.33
2023-02-11T04:58:24.644Z,62.08
2023-02-11T05:00:51.976Z,61.22
2023-02-11T05:03:19.182Z,58.88
2023-02-11T05:05:46.337Z,60.95
2023-02-11T05:08:13.503Z,61.20
2023-02-11T05:10:40.673Z,60.17
2023-02-11T05:13:07.843Z,61.50
2023-02-11T05:15:35.099Z,61.22
2023-02-11T05:18:02.253Z,61.67
2023-02-11T05:20:29.452Z,61.63
2023-02-11T05:22:56.603Z,58.33
2023-02-11T05:25:23.768Z,59.13
2023-02-11T05:27:50.928Z,58.78
2023-02-11T05:30:18.145Z,58.00
2023-02-11T05:32:45.292Z,58.38
2023-02-11T05:35:12.513Z,59.65
2023-02-11T05:37:40.048Z,59.00
2023-02-11T05:40:07.799Z,58.25
2023-02-11T05:42:35.059Z,57.80
2023-02-11T05:45:02.238Z,59.38
2023-02-11T05:47:29.404Z,59.40
2023-02-11T05:49:56.529Z,60.60
2023-02-11T05:52:24.234Z,60.00
2023-02-11T05:54:51.576Z,58.85
2023-02-11T05:57:18.734Z,58.85
2023-02-11T05:59:45.909Z,58.00
2023-02-11T06:02:13.449Z,59.38
2023-02-11T06:04:41.407Z,56.72
2023-02-11T06:07:08.620Z,57.33
2023-02-11T06:09:38.704Z,56.88
2023-02-11T06:12:06.008Z,55.30
2023-02-11T06:14:34.185Z,57.20
2023-02-11T06:17:01.731Z,58.00
2023-02-11T06:19:28.921Z,56.50
2023-02-11T06:21:56.374Z,55.60
2023-02-11T06:24:47.642Z,56.13
2023-02-11T06:27:11.363Z,55.08
2023-02-11T06:29:38.524Z,54.55
2023-02-11T06:32:05.892Z,53.28
2023-02-11T06:34:33.098Z,54.03
2023-02-11T06:37:00.223Z,54.40
2023-02-11T06:39:27.368Z,52.22
2023-02-11T06:41:54.871Z,53.85
2023-02-11T06:44:22.018Z,53.67
2023-02-11T06:46:49.250Z,53.92
2023-02-11T06:49:16.427Z,52.58
2023-02-11T06:51:43.557Z,52.78
2023-02-11T06:54:12.904Z,52.20
2023-02-11T06:56:41.725Z,51.85
2023-02-11T06:59:09.040Z,52.55
2023-02-11T07:01:36.223Z,52.42
2023-02-11T07:04:03.460Z,52.70
2023-02-11T07:06:30.595Z,52.15
2023-02-11T07:08:57.791Z,52.63
2023-02-11T07:11:28.416Z,49.92
2023-02-11T07:14:01.621Z,52.40
2023-02-11T07:16:28.919Z,49.45
2023-02-11T07:18:56.074Z,49.08
2023-02-11T07:21:24.322Z,49.33
2023-02-11T07:23:52.312Z,50.95
2023-02-11T07:26:23.434Z,49.08
2023-02-11T07:28:51.349Z,50.88
2023-02-11T07:31:26.536Z,49.22
2023-02-11T07:33:57.360Z,47.80
2023-02-11T07:36:24.774Z,49.22
2023-02-11T07:38:52.149Z,51.78
2023-02-11T07:41:22.869Z,50.15
2023-02-11T07:43:50.742Z,48.88
2023-02-11T07:46:23.117Z,49.10
2023-02-11T07:48:50.589Z,49.78
2023-02-11T07:51:22.645Z,49.75
2023-02-11T07:53:50.552Z,49.57
2023-02-11T07:56:20.202Z,49.33
2023-02-11T07:58:48.315Z,49.90
2023-02-11T08:01:20.095Z,50.63
2023-02-11T08:03:47.340Z,49.03
2023-02-11T08:06:17.576Z,49.90
2023-02-11T08:08:44.882Z,48.30
2023-02-11T08:11:19.770Z,49.75
2023-02-11T08:13:47.479Z,47.72
2023-02-11T08:16:22.806Z,48.35
2023-02-11T08:18:51.524Z,47.53
2023-02-11T08:21:20.420Z,49.55
2023-02-11T08:23:47.908Z,50.10
2023-02-11T08:26:21.560Z,48.00
2023-02-11T08:28:51.232Z,49.15
2023-02-11T08:31:35.097Z,49.03
2023-02-11T08:34:02.832Z,48.28
2023-02-11T08:36:34.185Z,47.95
2023-02-11T08:39:18.685Z,48.08
2023-02-11T08:41:54.115Z,46.75
2023-02-11T08:44:22.798Z,45.80
2023-02-11T08:46:51.240Z,47.97
2023-02-11T08:49:19.065Z,47.72
2023-02-11T08:51:46.684Z,47.33
2023-02-11T08:54:14.425Z,48.65
2023-02-11T08:56:42.419Z,47.92
2023-02-11T08:59:15.372Z,47.08
2023-02-11T09:04:11.403Z,47.17
2023-02-11T09:06:39.015Z,47.63
2023-02-11T09:09:06.513Z,47.90
2023-02-11T09:11:35.882Z,46.00
2023-02-11T09:14:04.783Z,46.28
2023-02-11T09:16:36.305Z,48.35
2023-02-11T09:19:05.250Z,44.67
2023-02-11T09:21:32.608Z,46.42
2023-02-11T09:23:59.782Z,47.70
2023-02-11T09:26:33.441Z,47.13
2023-02-11T09:29:01.714Z,46.45
2023-02-11T09:31:31.738Z,47.25
2023-02-11T09:34:04.322Z,46.20
2023-02-11T09:36:37.411Z,46.40
2023-02-11T09:39:11.183Z,45.42
2023-02-11T09:42:06.229Z,45.17
2023-02-11T09:44:36.414Z,44.78
2023-02-11T09:47:19.432Z,45.47
2023-02-11T09:49:58.251Z,46.80
2023-02-11T09:52:44.577Z,44.75
2023-02-11T09:55:30.384Z,46.00
2023-02-11T09:57:58.669Z,43.67
2023-02-11T10:00:33.853Z,45.17
2023-02-11T10:03:25.381Z,45.15
2023-02-11T10:06:14.085Z,44.78
2023-02-11T10:09:11.419Z,44.83
2023-02-11T10:12:01.172Z,46.30
2023-02-11T10:14:57.652Z,42.35
2023-02-11T10:17:48.015Z,41.90
2023-02-11T10:20:35.536Z,39.92
2023-02-11T10:23:19.523Z,42.03
2023-02-11T10:25:54.431Z,43.35
2023-02-11T10:28:33.983Z,42.95
2023-02-11T10:31:39.866Z,44.10
2023-02-11T10:34:14.474Z,44.15
2023-02-11T10:36:44.850Z,43.85
2023-02-11T10:39:15.576Z,44.67
2023-02-11T10:41:50.307Z,45.15
2023-02-11T10:44:32.430Z,47.13
2023-02-11T10:47:10.751Z,47.50
2023-02-11T10:49:44.723Z,45.63
2023-02-11T10:52:23.835Z,46.10
2023-02-11T10:55:25.962Z,45.53
2023-02-11T10:57:59.206Z,45.80
2023-02-11T11:00:36.801Z,47.83
2023-02-11T11:03:19.426Z,45.63
2023-02-11T11:06:00.207Z,45.85
2023-02-11T11:08:51.692Z,47.15
2023-02-11T11:11:22.146Z,45.03
2023-02-11T11:13:52.279Z,42.85
2023-02-11T11:16:37.253Z,45.95
2023-02-11T11:19:07.306Z,45.33
2023-02-11T11:21:48.231Z,44.38
2023-02-11T11:24:22.218Z,45.13
2023-02-11T11:26:54.990Z,45.30
2023-02-11T11:29:52.067Z,45.35
2023-02-11T11:32:27.796Z,46.58
2023-02-11T11:34:59.894Z,43.75
2023-02-11T11:37:31.743Z,44.15
2023-02-11T11:40:03.059Z,44.47
2023-02-11T11:42:34.457Z,45.55
2023-02-11T11:45:15.160Z,43.35
2023-02-11T11:48:14.512Z,43.60
2023-02-11T11:50:59.854Z,41.80
2023-02-11T11:53:52.060Z,43.50
2023-02-11T11:56:34.468Z,43.10
2023-02-11T11:59:16.979Z,42.63
2023-02-11T12:02:28.410Z,42.05
2023-02-11T12:05:15.035Z,41.45
2023-02-11T12:08:38.246Z,41.30
2023-02-11T12:12:23.029Z,40.28
2023-02-11T12:15:04.989Z,41.10
2023-02-11T12:18:19.133Z,40.05
2023-02-11T12:21:13.649Z,39.03
2023-02-11T12:24:27.447Z,40.70
2023-02-11T12:27:21.622Z,39.08
2023-02-11T12:30:22.493Z,39.08
2023-02-11T12:33:37.145Z,38.38
2023-02-11T12:36:36.392Z,36.53
2023-02-11T12:39:27.260Z,36.15
2023-02-11T12:42:53.780Z,36.92
2023-02-11T12:46:01.394Z,37.13
2023-02-11T12:48:46.860Z,35.50
2023-02-11T12:51:36.157Z,38.70
2023-02-11T12:54:17.644Z,36.40
2023-02-11T12:57:26.476Z,36.22
2023-02-11T13:00:18.510Z,37.78
2023-02-11T13:03:05.913Z,38.13
2023-02-11T13:05:51.791Z,36.97
2023-02-11T13:08:32.890Z,34.97
2023-02-11T13:11:08.312Z,39.00
2023-02-11T13:13:52.359Z,38.65
2023-02-11T13:16:48.680Z,39.75
2023-02-11T13:19:38.027Z,36.67
2023-02-11T13:22:16.341Z,41.65
2023-02-11T13:25:08.022Z,44.63
2023-02-11T13:27:58.736Z,38.35
2023-02-11T13:30:36.842Z,38.58
2023-02-11T13:33:17.678Z,49.15
2023-02-11T13:35:56.679Z,39.55
2023-02-11T13:38:28.616Z,38.80
2023-02-11T13:41:24.801Z,34.85
2023-02-11T13:44:22.190Z,34.85
2023-02-11T13:47:04.637Z,36.03
2023-02-11T13:49:40.375Z,36.65
2023-02-11T13:52:27.295Z,38.25
2023-02-11T13:55:02.454Z,35.58
2023-02-11T13:57:34.235Z,34.95
2023-02-11T14:00:33.460Z,35.35
2023-02-11T14:03:31.183Z,35.03
2023-02-11T14:06:31.383Z,34.03
2023-02-11T14:09:01.255Z,35.70
2023-02-11T14:11:36.261Z,34.72
2023-02-11T14:14:26.414Z,34.40
2023-02-11T14:17:02.432Z,33.75
2023-02-11T14:19:45.541Z,33.00
2023-02-11T14:22:19.638Z,32.42
2023-02-11T14:24:59.169Z,37.05
2023-02-11T14:28:07.793Z,45.83
2023-02-11T14:30:48.806Z,50.85
2023-02-11T14:33:34.898Z,45.63
2023-02-11T14:36:27.551Z,39.35
2023-02-11T14:39:49.485Z,38.37
2023-02-11T14:42:22.875Z,35.90
2023-02-11T14:44:53.093Z,35.10
2023-02-11T14:47:29.404Z,35.70
2023-02-11T14:49:56.904Z,34.53
2023-02-11T14:52:34.365Z,35.40
2023-02-11T14:55:33.933Z,35.50
2023-02-11T14:58:31.365Z,34.13
2023-02-11T15:01:02.299Z,34.88
2023-02-11T15:03:38.659Z,35.47
2023-02-11T15:06:21.200Z,36.42
2023-02-11T15:08:53.474Z,36.33
2023-02-11T15:11:25.392Z,36.63
2023-02-11T15:13:55.452Z,36.10
2023-02-11T15:16:25.964Z,36.05
2023-02-11T15:19:03.798Z,37.22
2023-02-11T15:21:35.827Z,36.08
2023-02-11T15:24:20.460Z,36.30
2023-02-11T15:27:08.056Z,36.00
2023-02-11T15:29:39.922Z,35.33
2023-02-11T15:32:09.893Z,35.83
2023-02-11T15:34:37.463Z,35.17
2023-02-11T15:37:05.769Z,36.30
2023-02-11T15:39:40.443Z,37.65
2023-02-11T15:42:25.764Z,36.33
2023-02-11T15:45:28.916Z,37.25
2023-02-11T15:48:18.819Z,37.45
2023-02-11T15:51:25.069Z,35.03
2023-02-11T15:53:58.386Z,35.25
2023-02-11T15:56:43.067Z,34.55
2023-02-11T15:59:19.926Z,34.10
2023-02-11T16:01:49.054Z,35.22
2023-02-11T16:04:20.028Z,34.58
2023-02-11T16:06:48.115Z,37.63
2023-02-11T16:09:15.260Z,33.42
2023-02-11T16:11:48.191Z,33.75
2023-02-11T16:17:13.074Z,32.83
2023-02-11T16:19:50.684Z,34.70
2023-02-11T16:22:25.412Z,33.80
2023-02-11T16:24:56.503Z,32.30
2023-02-11T16:27:35.792Z,33.05
2023-02-11T16:30:04.381Z,34.90
2023-02-11T16:32:31.663Z,34.20
2023-02-11T16:35:01.347Z,35.40
2023-02-11T16:37:28.549Z,34.83
2023-02-11T16:39:56.696Z,36.05
2023-02-11T16:42:24.695Z,35.53
2023-02-11T16:44:51.836Z,35.90
2023-02-11T16:47:28.380Z,35.58
2023-02-11T16:49:56.333Z,34.67
2023-02-11T16:52:25.292Z,36.10
2023-02-11T16:54:53.310Z,37.28
2023-02-11T16:57:24.489Z,35.88
2023-02-11T16:59:52.870Z,35.13
2023-02-11T17:02:28.503Z,34.42
2023-02-11T17:05:00.258Z,35.90
2023-02-11T17:07:28.204Z,37.75
2023-02-11T17:09:56.478Z,37.25
2023-02-11T17:12:25.365Z,36.15
2023-02-11T17:14:54.039Z,36.03
2023-02-11T17:17:23.525Z,33.65
2023-02-11T17:19:51.223Z,35.22
2023-02-11T17:22:18.843Z,34.83
2023-02-11T17:24:46.018Z,34.85
2023-02-11T17:27:13.654Z,35.10
2023-02-11T17:29:41.179Z,34.90
2023-02-11T17:32:08.547Z,34.85
2023-02-11T17:34:35.848Z,35.13
2023-02-11T17:37:08.856Z,35.42
2023-02-11T17:42:06.126Z,34.42
2023-02-11T17:44:33.696Z,35.22
2023-02-11T17:47:00.890Z,36.33
2023-02-11T17:49:28.075Z,36.60
2023-02-11T17:51:55.258Z,36.35
2023-02-11T17:54:22.589Z,36.75
2023-02-11T17:56:50.779Z,36.80
2023-02-11T17:59:18.149Z,37.83
2023-02-11T18:01:45.500Z,37.25
2023-02-11T18:04:17.626Z,38.83
2023-02-11T18:06:45.712Z,39.50
2023-02-11T18:09:13.284Z,38.92
2023-02-11T18:11:41.775Z,38.88
2023-02-11T18:14:11.287Z,39.85
2023-02-11T18:16:40.360Z,39.28
2023-02-11T18:19:07.910Z,38.13
2023-02-11T18:21:35.793Z,39.00
2023-02-11T18:24:06.721Z,38.85
2023-02-11T18:26:36.111Z,39.53
2023-02-11T18:29:05.235Z,39.47
2023-02-11T18:31:33.879Z,38.08
2023-02-11T18:34:04.032Z,38.15
2023-02-11T18:36:31.507Z,39.38
2023-02-11T18:39:00.508Z,38.38
2023-02-11T18:41:28.051Z,39.60
2023-02-11T18:43:58.660Z,40.53
2023-02-11T18:46:25.925Z,38.40
2023-02-11T18:48:55.949Z,38.25
2023-02-11T18:51:24.125Z,37.40
2023-02-11T18:53:51.505Z,40.55
2023-02-11T18:56:22.950Z,47.28
2023-02-11T18:58:51.379Z,38.78
2023-02-11T19:01:29.679Z,38.78
2023-02-11T19:04:00.267Z,38.00
2023-02-11T19:06:30.502Z,38.08
2023-02-11T19:09:01.847Z,36.97
2023-02-11T19:11:47.634Z,37.92
2023-02-11T19:14:19.475Z,37.90
2023-02-11T19:16:47.544Z,38.10
2023-02-11T19:19:14.698Z,39.00
2023-02-11T19:21:44.826Z,37.20
2023-02-11T19:24:15.551Z,37.85
2023-02-11T19:26:43.128Z,39.47
2023-02-11T19:29:10.764Z,39.85
2023-02-11T19:31:38.909Z,38.45
2023-02-11T19:34:07.464Z,38.10
2023-02-11T19:36:35.060Z,39.58
2023-02-11T19:39:04.895Z,39.25
2023-02-11T19:41:33.651Z,40.03
2023-02-11T19:44:02.365Z,39.05
2023-02-11T19:46:36.922Z,38.58
2023-02-11T19:49:05.509Z,39.90
2023-02-11T19:51:35.578Z,40.50
2023-02-11T19:54:02.810Z,39.55
2023-02-11T19:56:29.977Z,38.08
2023-02-11T19:58:57.842Z,39.13
2023-02-11T20:01:26.180Z,38.50
2023-02-11T20:03:55.427Z,37.97
2023-02-11T20:06:28.045Z,37.30
2023-02-11T20:09:02.083Z,38.25
2023-02-11T20:11:31.459Z,37.80
2023-02-11T20:13:59.381Z,38.92
2023-02-11T20:16:45.128Z,38.13
2023-02-11T20:19:21.461Z,38.35
2023-02-11T20:21:53.192Z,38.28
2023-02-11T20:24:21.075Z,37.38
2023-02-11T20:26:49.276Z,37.38
2023-02-11T20:29:18.065Z,35.88
2023-02-11T20:31:46.050Z,38.17
2023-02-11T20:34:13.748Z,35.80
2023-02-11T20:36:41.382Z,37.13
2023-02-11T20:39:11.136Z,36.22
2023-02-11T20:41:39.865Z,38.97
2023-02-11T20:44:10.593Z,37.17
2023-02-11T20:46:41.043Z,36.25
2023-02-11T20:49:12.607Z,35.58
2023-02-11T20:51:40.504Z,35.33
2023-02-11T20:54:17.673Z,36.72
2023-02-11T20:56:48.050Z,37.17
2023-02-11T20:59:16.763Z,36.08
2023-02-11T21:01:48.402Z,36.40
2023-02-11T21:04:19.522Z,34.88
2023-02-11T21:06:50.636Z,33.85
2023-02-11T21:09:21.701Z,32.88
2023-02-11T21:11:51.791Z,32.83
2023-02-11T21:14:20.686Z,33.20
2023-02-11T21:16:49.277Z,32.47
2023-02-11T21:19:17.039Z,32.17
2023-02-11T21:21:44.970Z,32.97
2023-02-11T21:24:12.932Z,32.25
2023-02-11T21:26:40.367Z,32.08
2023-02-11T21:29:08.728Z,34.08
2023-02-11T21:31:37.678Z,31.63
2023-02-11T21:34:05.985Z,31.95
2023-02-11T21:36:36.967Z,31.45
2023-02-11T21:39:05.928Z,31.50
2023-02-11T21:41:35.044Z,29.90
2023-02-11T21:44:02.274Z,31.10
2023-02-11T21:46:29.702Z,30.15
2023-02-11T21:48:57.800Z,30.48
2023-02-11T21:51:27.088Z,29.10
2023-02-11T21:53:58.622Z,29.27
2023-02-11T21:56:28.985Z,26.45
2023-02-11T21:58:58.935Z,22.65
2023-02-11T22:01:32.158Z,23.08
2023-02-11T22:04:00.230Z,21.55
2023-02-11T22:06:31.855Z,22.83
2023-02-11T22:09:06.566Z,24.65
2023-02-11T22:11:34.535Z,22.67
2023-02-11T22:14:01.870Z,24.40
2023-02-11T22:16:30.205Z,23.63
2023-02-11T22:19:02.399Z,23.65
2023-02-11T22:21:30.562Z,24.10
2023-02-11T22:23:57.805Z,24.30
2023-02-11T22:26:27.928Z,23.88
2023-02-11T22:28:56.038Z,23.38
2023-02-11T22:31:30.616Z,22.60
2023-02-11T22:33:59.368Z,24.10
2023-02-11T22:36:36.703Z,23.33
2023-02-11T22:39:12.196Z,21.88
2023-02-11T22:41:42.487Z,22.60
2023-02-11T22:44:09.951Z,22.05
2023-02-11T22:46:38.539Z,22.15
2023-02-11T22:49:07.228Z,21.73
2023-02-11T22:51:34.806Z,21.73
2023-02-11T22:54:06.590Z,22.20
2023-02-11T22:56:35.970Z,21.00
2023-02-11T22:59:07.944Z,20.88
2023-02-11T23:01:35.701Z,20.55
2023-02-11T23:04:06.207Z,20.30
2023-02-11T23:06:34.530Z,20.95
2023-02-11T23:09:07.964Z,22.35
2023-02-11T23:11:36.095Z,20.90
2023-02-11T23:14:03.885Z,20.98
2023-02-11T23:16:34.549Z,22.00
2023-02-11T23:19:08.323Z,22.80
2023-02-11T23:21:38.582Z,23.30
2023-02-11T23:24:11.894Z,21.70
2023-02-11T23:26:41.221Z,21.50
2023-02-11T23:29:09.929Z,20.95
2023-02-11T23:31:43.897Z,20.88
2023-02-11T23:34:12.646Z,19.98
2023-02-11T23:36:39.882Z,19.58
2023-02-11T23:39:07.047Z,19.67
2023-02-11T23:41:34.755Z,19.70
2023-02-11T23:44:01.983Z,19.10
2023-02-11T23:46:29.309Z,19.00
2023-02-11T23:48:56.768Z,18.50
2023-02-11T23:51:24.191Z,18.35
2023-02-11T23:53:52.574Z,17.73
2023-02-11T23:56:24.016Z,17.98
2023-02-11T23:58:55.217Z,18.15
